createdAt,value
2018-01-15T00:00:22.807Z,-0.60
2018-01-15T00:02:51.915Z,-0.57
2018-01-15T00:05:21.147Z,-0.56
2018-01-15T00:07:50.333Z,-0.55
2018-01-15T00:10:20.280Z,-0.55
2018-01-15T00:12:49.411Z,-0.53
2018-01-15T00:15:18.915Z,-0.51
2018-01-15T00:17:48.786Z,-0.51
2018-01-15T00:20:17.921Z,-0.56
2018-01-15T00:22:47.090Z,-0.50
2018-01-15T00:25:17.082Z,-0.55
2018-01-15T00:27:46.234Z,-0.57
2018-01-15T00:30:15.424Z,-0.55
2018-01-15T00:32:44.524Z,-0.54
2018-01-15T00:35:13.641Z,-0.54
2018-01-15T00:37:42.815Z,-0.54
2018-01-15T00:40:11.993Z,-0.53
2018-01-15T00:42:41.184Z,-0.52
2018-01-15T00:45:10.613Z,-0.53
2018-01-15T00:47:39.733Z,-0.54
2018-01-15T00:50:09.800Z,-0.54
2018-01-15T00:52:38.968Z,-0.56
2018-01-15T00:55:08.336Z,-0.54
2018-01-15T00:57:37.495Z,-0.53
2018-01-15T01:00:06.945Z,-0.54
2018-01-15T01:02:36.117Z,-0.55
2018-01-15T01:05:05.337Z,-0.52
2018-01-15T01:07:34.638Z,-0.53
2018-01-15T01:10:04.657Z,-0.56
2018-01-15T01:12:33.853Z,-0.52
2018-01-15T01:15:03.150Z,-0.53
2018-01-15T01:17:32.347Z,-0.54
2018-01-15T01:20:01.504Z,-0.56
2018-01-15T01:22:31.006Z,-0.57
2018-01-15T01:25:00.411Z,-0.56
2018-01-15T01:27:29.526Z,-0.60
2018-01-15T01:29:58.747Z,-0.57
2018-01-15T01:32:27.897Z,-0.58
2018-01-15T01:34:57.822Z,-0.54
2018-01-15T01:37:27.750Z,-0.56
2018-01-15T01:39:57.649Z,-0.60
2018-01-15T01:42:27.308Z,-0.58
2018-01-15T01:44:56.477Z,-0.55
2018-01-15T01:47:25.588Z,-0.55
2018-01-15T01:49:54.718Z,-0.52
2018-01-15T01:52:23.865Z,-0.51
2018-01-15T01:54:53.045Z,-0.56
2018-01-15T01:57:22.956Z,-0.54
2018-01-15T01:59:52.120Z,-0.50
2018-01-15T02:02:21.241Z,-0.51
2018-01-15T02:04:50.367Z,-0.53
2018-01-15T02:07:19.544Z,-0.52
2018-01-15T02:09:48.721Z,-0.54
2018-01-15T02:12:17.833Z,-0.54
2018-01-15T02:14:47.772Z,-0.55
2018-01-15T02:17:16.896Z,-0.56
2018-01-15T02:19:46.093Z,-0.59
2018-01-15T02:22:15.273Z,-0.55
2018-01-15T02:24:44.435Z,-0.54
2018-01-15T02:27:13.636Z,-0.57
2018-01-15T02:29:43.376Z,-0.57
2018-01-15T02:32:12.635Z,-0.55
2018-01-15T02:34:42.016Z,-0.55
2018-01-15T02:37:11.525Z,-0.57
2018-01-15T02:39:40.672Z,-0.56
2018-01-15T02:42:10.150Z,-0.57
2018-01-15T02:44:39.794Z,-0.53
2018-01-15T02:47:09.326Z,-0.51
2018-01-15T02:49:39.308Z,-0.49
2018-01-15T02:52:08.564Z,-0.55
2018-01-15T02:54:37.809Z,-0.53
2018-01-15T02:57:07.108Z,-0.53
2018-01-15T02:59:37.099Z,-0.51
2018-01-15T03:02:06.424Z,-0.56
2018-01-15T03:04:36.908Z,-0.53
2018-01-15T03:07:06.157Z,-0.52
2018-01-15T03:09:36.302Z,-0.53
2018-01-15T03:12:05.490Z,-0.53
2018-01-15T03:14:34.658Z,-0.50
2018-01-15T03:17:04.654Z,-0.48
2018-01-15T03:19:34.670Z,-0.48
2018-01-15T03:22:03.869Z,-0.49
2018-01-15T03:24:33.070Z,-0.48
2018-01-15T03:27:02.208Z,-0.49
2018-01-15T03:29:31.679Z,-0.49
2018-01-15T03:32:00.864Z,-0.50
2018-01-15T03:34:30.188Z,-0.47
2018-01-15T03:37:01.455Z,-0.48
2018-01-15T03:39:30.607Z,-0.49
2018-01-15T03:42:00.975Z,-0.48
2018-01-15T03:44:30.665Z,-0.51
2018-01-15T03:46:59.914Z,-0.49
2018-01-15T03:49:30.075Z,-0.49
2018-01-15T03:51:59.437Z,-0.52
2018-01-15T03:54:29.559Z,-0.49
2018-01-15T03:56:58.822Z,-0.50
2018-01-15T03:59:30.153Z,-0.44
2018-01-15T04:02:00.321Z,-0.48
2018-01-15T04:04:31.876Z,-0.46
2018-01-15T04:07:03.190Z,-0.45
2018-01-15T04:09:32.350Z,-0.42
2018-01-15T04:12:01.794Z,-0.44
2018-01-15T04:14:31.205Z,-0.40
2018-01-15T04:17:00.492Z,-0.40
2018-01-15T04:19:30.410Z,-0.42
2018-01-15T04:22:00.476Z,-0.39
2018-01-15T04:24:29.658Z,-0.38
2018-01-15T04:27:00.452Z,-0.39
2018-01-15T04:29:29.701Z,-0.38
2018-01-15T04:31:58.846Z,-0.38
2018-01-15T04:34:29.375Z,-0.37
2018-01-15T04:36:59.641Z,-0.35
2018-01-15T04:39:28.745Z,-0.31
2018-01-15T04:41:57.861Z,-0.28
2018-01-15T04:44:27.050Z,-0.29
2018-01-15T04:46:57.595Z,-0.26
2018-01-15T04:49:26.798Z,-0.24
2018-01-15T04:51:56.731Z,-0.23
2018-01-15T04:54:26.664Z,-0.21
2018-01-15T04:56:55.811Z,-0.22
2018-01-15T04:59:25.022Z,-0.22
2018-01-15T05:01:54.164Z,-0.18
2018-01-15T05:04:23.330Z,-0.22
2018-01-15T05:06:52.668Z,-0.17
2018-01-15T05:09:21.777Z,-0.19
2018-01-15T05:11:51.415Z,-0.20
2018-01-15T05:14:21.028Z,-0.15
2018-01-15T05:16:50.133Z,-0.14
2018-01-15T05:19:19.271Z,-0.12
2018-01-15T05:21:49.424Z,-0.14
2018-01-15T05:24:18.593Z,-0.15
2018-01-15T05:26:47.790Z,-0.13
2018-01-15T05:29:16.948Z,-0.13
2018-01-15T05:31:46.075Z,-0.12
2018-01-15T05:34:15.247Z,-0.13
2018-01-15T05:36:45.261Z,-0.13
2018-01-15T05:39:14.427Z,-0.12
2018-01-15T05:41:43.554Z,-0.10
2018-01-15T05:44:13.089Z,-0.10
2018-01-15T05:46:42.274Z,-0.08
2018-01-15T05:49:11.429Z,-0.08
2018-01-15T05:51:40.781Z,-0.03
2018-01-15T05:54:09.981Z,0.00
2018-01-15T05:56:40.042Z,0.04
2018-01-15T05:59:09.554Z,0.05
2018-01-15T06:01:38.726Z,0.06
2018-01-15T06:04:08.717Z,0.07
2018-01-15T06:06:38.117Z,0.09
2018-01-15T06:09:07.227Z,0.10
2018-01-15T06:11:36.421Z,0.09
2018-01-15T06:14:05.595Z,0.09
2018-01-15T06:16:35.525Z,0.12
2018-01-15T06:19:05.437Z,0.12
2018-01-15T06:21:34.633Z,0.11
2018-01-15T06:24:03.855Z,0.14
2018-01-15T06:26:33.069Z,0.17
2018-01-15T06:29:02.393Z,0.15
2018-01-15T06:31:32.550Z,0.16
2018-01-15T06:34:01.750Z,0.18
2018-01-15T06:36:31.663Z,0.17
2018-01-15T06:39:00.863Z,0.17
2018-01-15T06:41:29.986Z,0.20
2018-01-15T06:43:59.129Z,0.20
2018-01-15T06:46:28.246Z,0.20
2018-01-15T06:48:57.392Z,0.22
2018-01-15T06:51:26.697Z,0.24
2018-01-15T06:53:55.813Z,0.24
2018-01-15T06:56:24.919Z,0.28
2018-01-15T06:58:54.097Z,0.27
2018-01-15T07:01:23.252Z,0.30
2018-01-15T07:03:52.374Z,0.29
2018-01-15T07:06:22.289Z,0.28
2018-01-15T07:08:51.414Z,0.32
2018-01-15T07:11:21.382Z,0.31
2018-01-15T07:13:50.833Z,0.30
2018-01-15T07:16:20.010Z,0.35
2018-01-15T07:18:49.116Z,0.36
2018-01-15T07:21:18.291Z,0.42
2018-01-15T07:23:48.193Z,0.45
2018-01-15T07:26:17.331Z,0.46
2018-01-15T07:28:47.301Z,0.52
2018-01-15T07:31:17.163Z,0.48
2018-01-15T07:33:46.277Z,0.50
2018-01-15T07:36:15.497Z,0.57
2018-01-15T07:38:45.384Z,0.60
2018-01-15T07:41:14.545Z,0.63
2018-01-15T07:43:44.461Z,0.64
2018-01-15T07:46:13.593Z,0.68
2018-01-15T07:48:43.589Z,0.66
2018-01-15T07:51:12.949Z,0.63
2018-01-15T07:53:43.276Z,0.64
2018-01-15T07:56:12.429Z,0.68
2018-01-15T07:58:41.873Z,0.66
2018-01-15T08:01:10.998Z,0.70
2018-01-15T08:03:40.937Z,0.66
2018-01-15T08:06:10.220Z,0.71
2018-01-15T08:08:39.445Z,0.75
2018-01-15T08:11:08.598Z,0.81
2018-01-15T08:13:38.010Z,0.85
2018-01-15T08:16:07.164Z,0.93
2018-01-15T08:18:36.322Z,0.97
2018-01-15T08:21:06.618Z,0.99
2018-01-15T08:23:35.737Z,1.01
2018-01-15T08:26:04.871Z,1.08
2018-01-15T08:28:34.826Z,1.15
2018-01-15T08:31:04.034Z,1.21
2018-01-15T08:33:33.334Z,1.19
2018-01-15T08:36:02.493Z,1.26
2018-01-15T08:38:31.762Z,1.24
2018-01-15T08:41:01.004Z,1.21
2018-01-15T08:43:30.160Z,1.18
2018-01-15T08:46:00.122Z,1.26
2018-01-15T08:48:29.998Z,1.29
2018-01-15T08:50:59.403Z,1.33
2018-01-15T08:53:28.517Z,1.40
2018-01-15T08:55:57.624Z,1.42
2018-01-15T08:58:27.826Z,1.47
2018-01-15T09:00:56.956Z,1.48
2018-01-15T09:03:26.164Z,1.44
2018-01-15T09:05:55.313Z,1.49
2018-01-15T09:08:24.417Z,1.52
2018-01-15T09:10:54.299Z,1.61
2018-01-15T09:13:23.685Z,1.67
2018-01-15T09:15:52.799Z,1.74
2018-01-15T09:18:21.938Z,1.76
2018-01-15T09:20:51.268Z,1.80
2018-01-15T09:23:20.390Z,1.83
2018-01-15T09:25:49.637Z,1.79
2018-01-15T09:28:18.892Z,1.83
2018-01-15T09:30:49.006Z,1.88
2018-01-15T09:33:18.206Z,2.00
2018-01-15T09:35:47.399Z,2.05
2018-01-15T09:38:16.663Z,2.08
2018-01-15T09:40:46.637Z,2.13
2018-01-15T09:43:15.887Z,2.15
2018-01-15T09:45:45.047Z,2.15
2018-01-15T09:48:15.069Z,2.17
2018-01-15T09:50:44.422Z,2.24
2018-01-15T09:53:13.550Z,2.22
2018-01-15T09:55:42.807Z,2.20
2018-01-15T09:58:12.767Z,2.20
2018-01-15T10:00:42.706Z,2.26
2018-01-15T10:03:11.894Z,2.31
2018-01-15T10:05:41.195Z,2.33
2018-01-15T10:08:11.230Z,2.41
2018-01-15T10:10:40.512Z,2.39
2018-01-15T10:13:09.854Z,2.42
2018-01-15T10:15:39.036Z,2.38
2018-01-15T10:18:08.217Z,2.42
2018-01-15T10:20:37.506Z,2.46
2018-01-15T10:23:07.640Z,2.42
2018-01-15T10:25:36.920Z,2.45
2018-01-15T10:28:07.249Z,2.48
2018-01-15T10:30:36.524Z,2.55
2018-01-15T10:33:05.889Z,2.45
2018-01-15T10:35:35.115Z,2.46
2018-01-15T10:38:04.446Z,2.41
2018-01-15T10:40:33.645Z,2.42
2018-01-15T10:43:02.886Z,2.35
2018-01-15T10:45:32.070Z,2.33
2018-01-15T10:48:01.241Z,2.32
2018-01-15T10:50:31.194Z,2.33
2018-01-15T10:53:00.330Z,2.36
2018-01-15T10:55:29.445Z,2.37
2018-01-15T10:57:59.465Z,2.40
2018-01-15T11:00:34.074Z,2.38
2018-01-15T11:03:03.349Z,2.42
2018-01-15T11:05:32.499Z,2.50
2018-01-15T11:08:02.465Z,2.49
2018-01-15T11:10:31.773Z,2.53
2018-01-15T11:13:01.793Z,2.56
2018-01-15T11:15:31.927Z,2.55
2018-01-15T11:18:01.103Z,2.64
2018-01-15T11:20:30.274Z,2.68
2018-01-15T11:22:59.390Z,2.77
2018-01-15T11:25:28.603Z,2.93
2018-01-15T11:27:57.737Z,2.86
2018-01-15T11:30:26.957Z,2.94
2018-01-15T11:32:56.874Z,2.95
2018-01-15T11:35:26.046Z,2.94
2018-01-15T11:37:55.181Z,3.05
2018-01-15T11:40:24.332Z,3.06
2018-01-15T11:42:53.460Z,3.14
2018-01-15T11:45:22.571Z,3.09
2018-01-15T11:47:52.029Z,3.05
2018-01-15T11:50:21.172Z,2.93
2018-01-15T11:52:51.071Z,2.99
2018-01-15T11:55:20.418Z,3.03
2018-01-15T11:57:49.588Z,2.94
2018-01-15T12:00:18.697Z,2.96
2018-01-15T12:02:47.880Z,3.03
2018-01-15T12:05:16.979Z,2.99
2018-01-15T12:07:46.105Z,3.12
2018-01-15T12:10:15.268Z,3.12
2018-01-15T12:12:44.400Z,3.16
2018-01-15T12:15:13.506Z,3.17
2018-01-15T12:17:42.674Z,3.15
2018-01-15T12:20:11.830Z,3.17
2018-01-15T12:22:40.945Z,3.24
2018-01-15T12:25:10.102Z,3.28
2018-01-15T12:27:39.317Z,3.31
2018-01-15T12:30:08.543Z,3.39
2018-01-15T12:32:37.763Z,3.41
2018-01-15T12:35:07.666Z,3.44
2018-01-15T12:37:36.898Z,3.48
2018-01-15T12:40:06.467Z,3.47
2018-01-15T12:42:35.775Z,3.50
2018-01-15T12:45:04.972Z,3.52
2018-01-15T12:47:34.194Z,3.59
2018-01-15T12:50:03.424Z,3.68
2018-01-15T12:52:32.582Z,3.77
2018-01-15T12:55:02.530Z,3.82
2018-01-15T12:57:31.668Z,3.92
2018-01-15T13:00:00.817Z,3.90
2018-01-15T13:02:30.764Z,3.87
2018-01-15T13:04:59.867Z,3.90
2018-01-15T13:07:47.913Z,3.94
2018-01-15T13:10:17.811Z,3.92
2018-01-15T13:12:46.953Z,3.93
2018-01-15T13:15:16.995Z,3.91
2018-01-15T13:17:46.904Z,3.96
2018-01-15T13:20:16.843Z,3.93
2018-01-15T13:22:46.794Z,3.99
2018-01-15T13:25:15.933Z,3.96
2018-01-15T13:27:45.081Z,4.02
2018-01-15T13:30:14.560Z,3.99
2018-01-15T13:32:43.654Z,4.04
2018-01-15T13:35:12.757Z,4.05
2018-01-15T13:37:41.978Z,3.95
2018-01-15T13:40:11.117Z,3.92
2018-01-15T13:42:40.285Z,3.99
2018-01-15T13:45:09.489Z,4.05
2018-01-15T13:47:38.673Z,4.09
2018-01-15T13:50:07.837Z,4.05
2018-01-15T13:52:37.036Z,4.04
2018-01-15T13:55:06.277Z,4.09
2018-01-15T13:57:35.432Z,4.07
2018-01-15T14:00:05.467Z,4.09
2018-01-15T14:02:34.686Z,4.12
2018-01-15T14:05:03.918Z,4.10
2018-01-15T14:07:34.401Z,4.16
2018-01-15T14:10:04.446Z,4.19
2018-01-15T14:12:33.817Z,4.14
2018-01-15T14:15:03.155Z,4.17
2018-01-15T14:17:32.978Z,4.16
2018-01-15T14:20:02.339Z,4.19
2018-01-15T14:22:31.598Z,4.26
2018-01-15T14:25:00.899Z,4.27
2018-01-15T14:27:30.056Z,4.22
2018-01-15T14:30:00.175Z,4.23
2018-01-15T14:32:29.286Z,4.23
2018-01-15T14:34:59.215Z,4.21
2018-01-15T14:37:28.766Z,4.14
2018-01-15T14:39:58.002Z,4.21
2018-01-15T14:42:27.057Z,4.21
2018-01-15T14:44:56.282Z,4.23
2018-01-15T14:47:25.396Z,4.24
2018-01-15T14:49:54.523Z,4.26
2018-01-15T14:52:23.677Z,4.25
2018-01-15T14:54:52.821Z,4.25
2018-01-15T14:57:21.938Z,4.27
2018-01-15T14:59:51.210Z,4.26
2018-01-15T15:02:20.346Z,4.30
2018-01-15T15:04:50.302Z,4.24
2018-01-15T15:07:19.474Z,4.26
2018-01-15T15:09:48.574Z,4.26
2018-01-15T15:12:17.790Z,4.25
2018-01-15T15:14:46.946Z,4.22
2018-01-15T15:17:16.082Z,4.21
2018-01-15T15:19:46.303Z,4.18
2018-01-15T15:22:15.521Z,4.15
2018-01-15T15:24:44.734Z,4.18
2018-01-15T15:27:14.739Z,4.17
2018-01-15T15:29:43.931Z,4.12
2018-01-15T15:32:13.887Z,4.15
2018-01-15T15:34:43.145Z,4.17
2018-01-15T15:37:12.355Z,4.17
2018-01-15T15:39:41.479Z,4.17
2018-01-15T15:42:10.714Z,4.15
2018-01-15T15:44:39.876Z,4.10
2018-01-15T15:47:09.093Z,4.13
2018-01-15T15:49:38.290Z,4.13
2018-01-15T15:52:07.570Z,4.16
2018-01-15T15:54:36.765Z,4.08
2018-01-15T15:57:06.013Z,4.04
2018-01-15T15:59:35.372Z,4.04
2018-01-15T16:02:04.701Z,4.07
2018-01-15T16:04:33.834Z,4.02
2018-01-15T16:07:03.209Z,4.01
2018-01-15T16:09:33.286Z,3.99
2018-01-15T16:12:03.345Z,3.95
2018-01-15T16:14:32.531Z,3.94
2018-01-15T16:17:03.265Z,3.94
2018-01-15T16:19:32.449Z,3.97
2018-01-15T16:22:19.685Z,3.99
2018-01-15T16:24:49.197Z,4.02
2018-01-15T16:27:18.727Z,4.04
2018-01-15T16:29:47.978Z,4.12
2018-01-15T16:32:17.310Z,4.15
2018-01-15T16:34:46.524Z,4.20
2018-01-15T16:37:16.637Z,4.17
2018-01-15T16:39:45.896Z,4.18
2018-01-15T16:42:15.082Z,4.21
2018-01-15T16:44:44.391Z,4.21
2018-01-15T16:47:13.640Z,4.22
2018-01-15T16:49:44.618Z,4.20
2018-01-15T16:52:15.199Z,4.22
2018-01-15T16:54:44.393Z,4.21
2018-01-15T16:57:13.517Z,4.22
2018-01-15T16:59:43.446Z,4.23
2018-01-15T17:02:12.628Z,4.22
2018-01-15T17:04:41.877Z,4.23
2018-01-15T17:07:11.097Z,4.17
2018-01-15T17:09:42.680Z,4.13
2018-01-15T17:14:59.732Z,4.05
2018-01-15T17:17:35.756Z,4.10
2018-01-15T17:20:05.073Z,4.09
2018-01-15T17:22:34.321Z,4.07
2018-01-15T17:25:04.700Z,4.06
2018-01-15T17:27:36.630Z,4.06
2018-01-15T17:32:51.377Z,4.02
2018-01-15T17:35:23.591Z,3.97
2018-01-15T17:37:54.905Z,4.01
2018-01-15T17:40:24.071Z,4.00
2018-01-15T17:42:53.209Z,4.00
2018-01-15T17:45:25.121Z,3.97
2018-01-15T17:47:56.906Z,3.91
2018-01-15T17:50:27.830Z,3.88
2018-01-15T17:52:59.029Z,3.90
2018-01-15T17:55:31.549Z,3.81
2018-01-15T17:58:04.545Z,3.80
2018-01-15T18:00:34.796Z,3.80
2018-01-15T18:03:04.075Z,3.80
2018-01-15T18:08:17.174Z,3.79
2018-01-15T18:10:46.715Z,3.75
2018-01-15T18:13:18.822Z,3.78
2018-01-15T18:15:48.733Z,3.79
2018-01-15T18:18:22.965Z,3.84
2018-01-15T18:20:52.822Z,3.86
2018-01-15T18:23:26.267Z,3.87
2018-01-15T18:25:58.467Z,3.85
2018-01-15T18:28:31.701Z,3.85
2018-01-15T18:33:45.110Z,3.91
2018-01-15T18:36:19.892Z,3.91
2018-01-15T18:38:54.962Z,3.90
2018-01-15T18:41:30.289Z,3.93
2018-01-15T18:43:59.634Z,3.90
2018-01-15T18:46:29.000Z,3.89
2018-01-15T18:48:58.342Z,3.87
2018-01-15T18:51:27.525Z,3.84
2018-01-15T18:53:56.643Z,3.88
2018-01-15T18:56:25.824Z,3.81
2018-01-15T18:58:55.744Z,3.81
2018-01-15T19:01:25.725Z,3.82
2018-01-15T19:03:54.908Z,3.82
2018-01-15T19:06:24.078Z,3.81
2018-01-15T19:08:53.424Z,3.85
2018-01-15T19:11:22.998Z,3.83
2018-01-15T19:13:52.907Z,3.86
2018-01-15T19:16:22.190Z,3.91
2018-01-15T19:18:51.340Z,3.91
2018-01-15T19:21:20.588Z,3.97
2018-01-15T19:23:49.770Z,3.98
2018-01-15T19:26:18.970Z,4.01
2018-01-15T19:28:48.105Z,4.04
2018-01-15T19:31:17.305Z,4.03
2018-01-15T19:33:46.832Z,4.09
2018-01-15T19:36:21.490Z,4.07
2018-01-15T19:38:56.848Z,4.07
2018-01-15T19:41:33.731Z,4.09
2018-01-15T19:47:18.490Z,4.13
2018-01-15T19:49:53.122Z,4.16
2018-01-15T19:52:27.760Z,4.14
2018-01-15T19:55:02.824Z,4.12
2018-01-15T19:57:37.418Z,4.14
2018-01-15T20:00:12.930Z,4.17
2018-01-15T20:02:48.442Z,4.21
2018-01-15T20:05:23.205Z,4.24
2018-01-15T20:07:57.869Z,4.22
2018-01-15T20:10:33.748Z,4.24
2018-01-15T20:13:03.131Z,4.29
2018-01-15T20:15:32.426Z,4.32
2018-01-15T20:18:01.727Z,4.30
2018-01-15T20:20:32.210Z,4.32
2018-01-15T20:23:01.498Z,4.33
2018-01-15T20:25:31.531Z,4.33
2018-01-15T20:28:03.039Z,4.32
2018-01-15T20:30:35.603Z,4.34
2018-01-15T20:33:05.212Z,4.36
2018-01-15T20:35:34.420Z,4.37
2018-01-15T20:38:03.824Z,4.41
2018-01-15T20:40:33.750Z,4.42
2018-01-15T20:43:03.980Z,4.38
2018-01-15T20:45:33.344Z,4.43
2018-01-15T20:48:04.030Z,4.43
2018-01-15T20:50:33.307Z,4.44
2018-01-15T20:53:02.906Z,4.42
2018-01-15T20:55:33.197Z,4.41
2018-01-15T20:58:03.936Z,4.38
2018-01-15T21:00:34.010Z,4.41
2018-01-15T21:03:03.561Z,4.36
2018-01-15T21:05:33.196Z,4.37
2018-01-15T21:08:03.590Z,4.34
2018-01-15T21:10:34.161Z,4.38
2018-01-15T21:13:03.955Z,4.36
2018-01-15T21:15:33.367Z,4.38
2018-01-15T21:18:03.375Z,4.34
2018-01-15T21:20:32.900Z,4.32
2018-01-15T21:23:02.155Z,4.36
2018-01-15T21:25:31.836Z,4.36
2018-01-15T21:28:01.122Z,4.39
2018-01-15T21:30:31.074Z,4.40
2018-01-15T21:33:01.272Z,4.42
2018-01-15T21:35:31.227Z,4.40
2018-01-15T21:38:00.380Z,4.42
2018-01-15T21:40:30.305Z,4.40
2018-01-15T21:43:00.858Z,4.40
2018-01-15T21:45:30.048Z,4.41
2018-01-15T21:47:59.148Z,4.37
2018-01-15T21:50:28.326Z,4.33
2018-01-15T21:52:57.440Z,4.31
2018-01-15T21:55:27.308Z,4.34
2018-01-15T21:57:57.913Z,4.34
2018-01-15T22:00:27.187Z,4.27
2018-01-15T22:02:56.359Z,4.23
2018-01-15T22:05:25.545Z,4.27
2018-01-15T22:07:54.685Z,4.30
2018-01-15T22:10:23.868Z,4.33
2018-01-15T22:12:53.050Z,4.35
2018-01-15T22:15:22.969Z,4.37
2018-01-15T22:17:52.896Z,4.36
2018-01-15T22:20:22.487Z,4.29
2018-01-15T22:22:51.599Z,4.28
2018-01-15T22:25:20.713Z,4.31
2018-01-15T22:27:50.126Z,4.31
2018-01-15T22:30:19.257Z,4.34
2018-01-15T22:32:48.566Z,4.33
2018-01-15T22:35:17.728Z,4.32
2018-01-15T22:37:47.591Z,4.25
2018-01-15T22:40:16.684Z,4.26
2018-01-15T22:42:45.844Z,4.27
2018-01-15T22:45:14.983Z,4.32
2018-01-15T22:47:44.170Z,4.26
2018-01-15T22:50:13.314Z,4.28
2018-01-15T22:52:42.465Z,4.29
2018-01-15T22:55:12.465Z,4.32
2018-01-15T22:57:41.789Z,4.31
2018-01-15T23:00:11.132Z,4.33
2018-01-15T23:02:40.288Z,4.32
2018-01-15T23:05:09.704Z,4.29
2018-01-15T23:07:39.083Z,4.34
2018-01-15T23:10:08.392Z,4.34
2018-01-15T23:12:37.935Z,4.31
2018-01-15T23:15:07.226Z,4.32
2018-01-15T23:17:37.203Z,4.30
2018-01-15T23:20:06.530Z,4.30
2018-01-15T23:22:37.339Z,4.31
2018-01-15T23:25:07.383Z,4.37
2018-01-15T23:27:36.618Z,4.40
2018-01-15T23:30:05.855Z,4.31
2018-01-15T23:32:35.149Z,4.26
2018-01-15T23:35:04.570Z,4.24
2018-01-15T23:37:33.734Z,4.20
2018-01-15T23:40:03.738Z,4.16
2018-01-15T23:42:32.960Z,4.13
2018-01-15T23:45:03.951Z,4.12
2018-01-15T23:47:33.138Z,4.14
2018-01-15T23:50:02.406Z,4.14
2018-01-15T23:52:31.524Z,4.13
2018-01-15T23:55:02.103Z,4.05
2018-01-15T23:57:32.053Z,3.99
